Time;durP1;ratioP1;P1;durP2;ratioP2;P2;SDS_P1;SDS_P2;PMS_P1;PMS_P2;Temp;Humidity;BMP_temperature;BMP_pressure;BME280_temperature;BME280_humidity;BME280_pressure;Samples;Min_cycle;Max_cycle;Signal;HPM_P1;HPM_P2
2021/08/08 00:00:00;;;;;;;2.67;0.80;;;16.80;87.20;;;;;;5093857;28;20535;-83
2021/08/08 00:02:26;;;;;;;4.93;0.70;;;16.80;87.10;;;;;;5076042;28;20032;-83
2021/08/08 00:04:53;;;;;;;5.07;0.90;;;16.80;86.80;;;;;;5092868;28;20038;-83
2021/08/08 00:07:18;;;;;;;4.53;1.00;;;16.80;87.00;;;;;;5114899;28;20053;-84
2021/08/08 00:09:45;;;;;;;2.97;0.73;;;16.80;87.10;;;;;;5116738;28;20028;-83
2021/08/08 00:12:12;;;;;;;3.00;0.98;;;16.80;87.00;;;;;;5099200;28;20089;-83
2021/08/08 00:14:38;;;;;;;4.95;1.00;;;16.80;87.10;;;;;;5116505;28;20533;-83
2021/08/08 00:17:05;;;;;;;4.13;1.02;;;16.80;86.90;;;;;;5113346;28;20035;-84
2021/08/08 00:19:31;;;;;;;3.80;0.77;;;16.80;87.00;;;;;;5115359;28;20049;-83
2021/08/08 00:21:57;;;;;;;3.67;1.17;;;16.80;87.00;;;;;;5079996;28;20460;-84
2021/08/08 00:24:22;;;;;;;2.90;0.95;;;16.80;87.10;;;;;;5092854;28;20043;-83
2021/08/08 00:26:48;;;;;;;4.93;1.10;;;16.80;87.00;;;;;;5093098;28;20043;-83
2021/08/08 00:29:14;;;;;;;3.58;1.02;;;16.80;87.00;;;;;;5092118;28;20028;-84
2021/08/08 00:31:39;;;;;;;6.35;1.10;;;16.80;86.90;;;;;;5092712;28;20130;-83
2021/08/08 00:34:05;;;;;;;4.65;1.27;;;16.80;86.70;;;;;;5092112;28;20461;-85
2021/08/08 00:36:33;;;;;;;5.03;1.23;;;16.80;86.80;;;;;;5075476;28;20036;-84
2021/08/08 00:39:00;;;;;;;3.88;1.30;;;16.80;86.70;;;;;;5109480;28;20031;-83
2021/08/08 00:41:26;;;;;;;3.67;1.30;;;16.80;86.80;;;;;;5091781;28;20066;-84
2021/08/08 00:43:52;;;;;;;2.95;1.13;;;16.80;86.70;;;;;;5109205;28;20020;-84
2021/08/08 00:46:17;;;;;;;3.50;1.20;;;16.90;86.80;;;;;;5109093;28;20032;-84
2021/08/08 00:48:43;;;;;;;4.50;1.70;;;16.90;86.70;;;;;;5092725;28;20105;-84
2021/08/08 00:51:09;;;;;;;4.60;1.38;;;16.90;86.70;;;;;;5109300;28;20020;-83
2021/08/08 00:53:34;;;;;;;5.88;1.63;;;16.90;86.70;;;;;;5098310;28;20352;-85
2021/08/08 00:56:00;;;;;;;6.95;1.40;;;16.80;86.80;;;;;;5095465;28;20048;-84
2021/08/08 00:58:27;;;;;;;4.75;1.60;;;16.80;86.80;;;;;;5094465;28;20044;-84
2021/08/08 01:00:58;;;;;;;4.88;1.75;;;16.80;86.70;;;;;;5112312;28;20028;-84
2021/08/08 01:03:26;;;;;;;3.58;1.38;;;16.80;86.80;;;;;;5116225;28;20087;-82
2021/08/08 01:05:57;;;;;;;3.70;1.63;;;16.80;86.80;;;;;;5129396;28;20031;-83
2021/08/08 01:08:29;;;;;;;7.00;1.90;;;16.80;86.90;;;;;;5131170;28;20032;-83
2021/08/08 01:10:56;;;;;;;4.53;1.80;;;16.90;86.80;;;;;;5136125;28;20563;-82
2021/08/08 01:13:22;;;;;;;7.75;1.98;;;16.80;86.70;;;;;;5134540;28;20035;-84
2021/08/08 01:15:50;;;;;;;6.65;1.55;;;16.80;86.70;;;;;;5135885;28;20016;-82
2021/08/08 01:18:17;;;;;;;6.63;2.00;;;16.80;86.80;;;;;;5133444;28;20105;-80
2021/08/08 01:20:44;;;;;;;6.93;1.58;;;16.90;86.80;;;;;;5106434;28;20039;-82
2021/08/08 01:23:13;;;;;;;8.75;1.85;;;16.90;86.70;;;;;;5099691;28;20046;-86
2021/08/08 01:25:41;;;;;;;5.85;1.42;;;16.80;86.60;;;;;;5118116;28;20023;-82
2021/08/08 01:28:08;;;;;;;4.82;1.55;;;16.90;86.50;;;;;;5116137;28;20028;-85
2021/08/08 01:30:34;;;;;;;7.57;1.73;;;16.80;86.60;;;;;;5116132;28;20131;-82
2021/08/08 01:33:05;;;;;;;4.68;1.50;;;16.80;86.50;;;;;;5116287;28;20020;-83
2021/08/08 01:35:31;;;;;;;4.35;1.48;;;16.80;86.40;;;;;;5116858;28;20031;-82
2021/08/08 01:37:57;;;;;;;8.35;1.75;;;16.80;86.30;;;;;;5114285;28;20032;-82
2021/08/08 01:40:37;;;;;;;8.27;1.85;;;16.80;86.30;;;;;;5128604;28;20491;-83
2021/08/08 01:43:07;;;;;;;9.18;1.85;;;16.80;86.10;;;;;;5112070;28;20110;-83
2021/08/08 01:45:38;;;;;;;5.07;1.40;;;16.80;86.00;;;;;;5111802;28;20085;-84
2021/08/08 01:48:05;;;;;;;8.13;1.67;;;16.80;86.00;;;;;;5112298;28;20028;-83
2021/08/08 01:50:33;;;;;;;7.30;1.67;;;16.80;85.80;;;;;;5112999;28;20019;-82
2021/08/08 01:53:00;;;;;;;6.93;1.58;;;16.80;86.10;;;;;;5113815;28;20028;-82
2021/08/08 01:55:27;;;;;;;7.53;1.67;;;16.80;85.80;;;;;;5112050;28;20047;-83
2021/08/08 01:57:54;;;;;;;8.30;1.55;;;16.80;85.70;;;;;;5116583;28;20027;-83
2021/08/08 02:00:20;;;;;;;5.97;1.55;;;16.80;85.70;;;;;;5116052;28;20019;-83
2021/08/08 02:02:55;;;;;;;8.48;1.52;;;16.80;85.50;;;;;;5116141;28;20055;-83
2021/08/08 02:05:22;;;;;;;8.73;1.88;;;16.80;85.20;;;;;;5115627;28;20028;-82
2021/08/08 02:07:48;;;;;;;7.45;1.58;;;16.80;85.10;;;;;;5116913;28;20039;-82
2021/08/08 02:10:14;;;;;;;5.57;1.38;;;16.80;84.90;;;;;;5115331;28;20043;-85
2021/08/08 02:12:40;;;;;;;9.30;1.88;;;16.80;84.90;;;;;;5115293;28;20494;-83
2021/08/08 02:15:09;;;;;;;7.70;1.65;;;16.70;84.90;;;;;;5115694;28;20032;-83
2021/08/08 02:17:36;;;;;;;8.18;1.70;;;16.70;84.80;;;;;;5114938;28;20618;-83
2021/08/08 02:20:02;;;;;;;9.32;1.48;;;16.70;84.90;;;;;;5115462;28;20383;-83
2021/08/08 02:22:28;;;;;;;12.07;1.55;;;16.70;84.70;;;;;;5116465;28;20023;-83
2021/08/08 02:24:53;;;;;;;5.45;1.30;;;16.70;84.50;;;;;;5130930;27;20493;-84
2021/08/08 02:27:19;;;;;;;6.40;1.30;;;16.70;84.40;;;;;;5115073;28;20495;-85
2021/08/08 02:29:45;;;;;;;5.53;1.42;;;16.70;84.20;;;;;;5098367;27;20032;-83
2021/08/08 02:32:10;;;;;;;9.90;1.45;;;16.70;84.10;;;;;;5114903;28;20094;-83
2021/08/08 02:34:36;;;;;;;12.02;1.52;;;16.70;84.00;;;;;;5097931;28;20028;-84
2021/08/08 02:37:02;;;;;;;5.40;1.38;;;16.60;83.70;;;;;;5114970;28;20031;-83
2021/08/08 02:39:28;;;;;;;7.78;1.25;;;16.60;83.70;;;;;;5114048;28;20486;-83
2021/08/08 02:41:53;;;;;;;10.52;1.42;;;16.60;83.70;;;;;;5097828;28;20119;-83
2021/08/08 02:44:19;;;;;;;8.00;1.58;;;16.60;83.60;;;;;;5097273;28;20123;-85
2021/08/08 02:46:44;;;;;;;6.10;1.30;;;16.60;83.50;;;;;;5097226;28;20028;-84
2021/08/08 02:49:10;;;;;;;10.50;1.60;;;16.60;83.50;;;;;;5114531;28;20528;-83
2021/08/08 02:51:35;;;;;;;11.40;1.85;;;16.60;83.40;;;;;;5096924;28;20031;-84
2021/08/08 02:54:01;;;;;;;6.82;1.40;;;16.50;83.30;;;;;;5114488;28;20024;-83
2021/08/08 02:56:27;;;;;;;11.07;1.65;;;16.60;83.20;;;;;;5115164;28;20087;-83
2021/08/08 02:58:52;;;;;;;9.95;1.30;;;16.50;83.10;;;;;;5097894;27;20031;-84
2021/08/08 03:01:18;;;;;;;8.40;1.27;;;16.50;83.50;;;;;;5097452;28;20024;-82
2021/08/08 03:03:44;;;;;;;11.00;1.50;;;16.50;83.20;;;;;;5130849;27;20375;-82
2021/08/08 03:06:11;;;;;;;11.07;1.70;;;16.50;83.10;;;;;;5114331;28;20019;-83
2021/08/08 03:08:39;;;;;;;9.18;1.40;;;16.50;83.20;;;;;;5114967;28;20084;-84
2021/08/08 03:11:04;;;;;;;6.47;1.40;;;16.50;83.10;;;;;;5115079;27;20055;-83
2021/08/08 03:13:30;;;;;;;6.20;1.20;;;16.50;83.10;;;;;;5115337;28;20363;-83
2021/08/08 03:15:56;;;;;;;7.40;1.27;;;16.50;83.10;;;;;;5114446;28;20095;-83
2021/08/08 03:18:21;;;;;;;10.93;1.80;;;16.40;83.10;;;;;;5114183;28;20482;-85
2021/08/08 03:20:47;;;;;;;9.27;1.60;;;16.40;83.10;;;;;;5113676;28;20020;-83
2021/08/08 03:23:13;;;;;;;8.40;1.20;;;16.40;83.10;;;;;;5113423;28;20441;-84
2021/08/08 03:25:38;;;;;;;12.25;1.40;;;16.40;83.60;;;;;;5112984;28;20020;-83
2021/08/08 03:28:04;;;;;;;7.45;1.30;;;16.40;83.30;;;;;;5130496;27;20061;-83
2021/08/08 03:30:30;;;;;;;9.82;1.40;;;16.40;83.30;;;;;;5129986;27;20051;-83
2021/08/08 03:32:56;;;;;;;9.38;1.88;;;16.40;83.20;;;;;;5113454;28;20534;-83
2021/08/08 03:35:21;;;;;;;7.97;1.88;;;16.40;83.10;;;;;;5097707;28;20030;-81
2021/08/08 03:37:47;;;;;;;9.00;1.35;;;16.40;83.10;;;;;;5116143;27;20655;-83
2021/08/08 03:40:13;;;;;;;9.02;1.88;;;16.40;83.20;;;;;;5116823;28;20114;-82
2021/08/08 03:42:38;;;;;;;8.60;1.58;;;16.40;83.20;;;;;;5113517;28;20520;-83
2021/08/08 03:45:05;;;;;;;8.50;2.25;;;16.40;83.20;;;;;;5113470;28;20082;-83
2021/08/08 03:47:33;;;;;;;11.77;1.58;;;16.30;83.20;;;;;;5095613;28;20418;-83
2021/08/08 03:49:59;;;;;;;9.70;1.77;;;16.20;83.40;;;;;;5114590;28;20020;-83
2021/08/08 03:52:25;;;;;;;12.35;1.80;;;16.20;83.60;;;;;;5113982;28;20406;-83
2021/08/08 03:54:50;;;;;;;11.85;1.75;;;16.10;83.80;;;;;;5112399;28;20032;-83
2021/08/08 03:57:16;;;;;;;9.90;1.70;;;16.00;84.10;;;;;;5096214;28;20036;-82
2021/08/08 03:59:42;;;;;;;11.30;1.73;;;15.90;84.30;;;;;;5095836;28;20059;-83
2021/08/08 04:02:07;;;;;;;7.60;1.25;;;15.80;84.60;;;;;;5098558;28;20498;-83
2021/08/08 04:04:33;;;;;;;9.85;2.08;;;15.70;84.90;;;;;;5098859;28;20039;-83
2021/08/08 04:06:59;;;;;;;8.73;1.42;;;15.60;85.20;;;;;;5098454;28;20035;-83
2021/08/08 04:09:25;;;;;;;8.85;1.75;;;15.50;85.50;;;;;;5116008;28;20027;-82
2021/08/08 04:11:50;;;;;;;6.30;1.63;;;15.50;85.80;;;;;;5099380;28;20183;-83
2021/08/08 04:14:16;;;;;;;9.10;2.30;;;15.40;86.00;;;;;;5114339;28;20410;-82
2021/08/08 04:16:41;;;;;;;8.98;1.65;;;15.40;86.20;;;;;;5112299;28;20060;-83
2021/08/08 04:19:07;;;;;;;8.32;1.40;;;15.40;86.20;;;;;;5113875;28;20024;-82
2021/08/08 04:21:33;;;;;;;13.30;2.00;;;15.40;86.30;;;;;;5112552;28;20383;-84
2021/08/08 04:23:58;;;;;;;7.45;1.88;;;15.40;86.30;;;;;;5096202;28;20031;-82
2021/08/08 04:26:24;;;;;;;8.40;2.00;;;15.40;86.40;;;;;;5093292;28;20552;-82
2021/08/08 04:28:50;;;;;;;12.88;2.22;;;15.50;86.40;;;;;;5093583;28;20024;-82
2021/08/08 04:31:15;;;;;;;12.35;2.17;;;15.60;86.30;;;;;;5077739;28;20036;-81
2021/08/08 04:33:41;;;;;;;11.85;1.90;;;15.60;86.10;;;;;;5094862;28;20406;-82
2021/08/08 04:36:07;;;;;;;9.88;2.10;;;15.60;86.20;;;;;;5095197;28;20030;-81
2021/08/08 04:38:33;;;;;;;10.88;2.03;;;15.50;86.30;;;;;;5094812;28;20028;-83
2021/08/08 04:40:58;;;;;;;11.10;1.95;;;15.50;86.50;;;;;;5093210;28;20032;-82
2021/08/08 04:43:24;;;;;;;11.45;2.08;;;15.50;86.60;;;;;;5110146;28;20104;-84
2021/08/08 04:45:51;;;;;;;11.07;1.67;;;15.60;86.60;;;;;;5109438;28;20027;-80
2021/08/08 04:48:16;;;;;;;14.48;1.95;;;15.60;86.40;;;;;;5096217;28;20063;-81
2021/08/08 04:50:42;;;;;;;16.60;2.00;;;15.70;86.30;;;;;;5096248;28;20054;-80
2021/08/08 04:53:15;;;;;;;13.48;2.42;;;15.80;86.20;;;;;;5072884;28;20028;-81
2021/08/08 04:55:41;;;;;;;13.35;2.25;;;15.80;85.90;;;;;;5075586;28;20129;-82
2021/08/08 04:58:07;;;;;;;9.80;2.05;;;15.90;85.80;;;;;;5092671;28;20040;-81
2021/08/08 05:00:33;;;;;;;11.52;1.98;;;16.00;85.70;;;;;;5093010;28;20515;-83
2021/08/08 05:03:00;;;;;;;8.00;2.03;;;16.00;85.50;;;;;;5074975;28;20020;-82
2021/08/08 05:05:25;;;;;;;12.60;2.17;;;16.10;85.40;;;;;;5092626;28;20039;-81
2021/08/08 05:07:51;;;;;;;9.88;2.10;;;16.10;85.20;;;;;;5111485;28;20024;-81
2021/08/08 05:10:18;;;;;;;12.27;2.15;;;16.20;85.10;;;;;;5092684;28;20109;-81
2021/08/08 05:12:44;;;;;;;10.88;1.75;;;16.20;85.00;;;;;;5091833;28;20129;-82
2021/08/08 05:15:11;;;;;;;11.68;1.85;;;16.20;84.90;;;;;;5078597;28;20028;-82
2021/08/08 05:17:38;;;;;;;14.57;2.42;;;16.30;84.90;;;;;;5114080;28;20032;-82
2021/08/08 05:20:05;;;;;;;8.77;1.75;;;16.30;84.60;;;;;;5112983;28;20088;-83
2021/08/08 05:22:31;;;;;;;8.77;1.90;;;16.30;84.50;;;;;;5113116;28;20037;-79
2021/08/08 05:24:57;;;;;;;9.90;2.00;;;16.30;84.30;;;;;;5095268;28;20527;-81
2021/08/08 05:27:22;;;;;;;11.98;1.92;;;16.40;84.20;;;;;;5095440;28;20483;-81
2021/08/08 05:29:48;;;;;;;14.75;2.30;;;16.40;84.30;;;;;;5078619;28;20023;-81
2021/08/08 05:32:14;;;;;;;12.52;2.10;;;16.30;84.30;;;;;;5115667;28;20080;-82
2021/08/08 05:34:39;;;;;;;9.10;1.92;;;16.40;84.20;;;;;;5119621;28;20028;-82
2021/08/08 05:37:07;;;;;;;9.48;2.05;;;16.50;84.10;;;;;;5117765;28;20038;-83
2021/08/08 05:39:33;;;;;;;13.52;1.92;;;16.50;83.90;;;;;;5082917;28;20023;-83
2021/08/08 05:41:59;;;;;;;10.65;1.73;;;16.50;83.70;;;;;;5115507;28;20076;-81
2021/08/08 05:44:24;;;;;;;9.90;1.77;;;16.60;83.70;;;;;;5119222;28;20031;-79
2021/08/08 05:46:50;;;;;;;11.45;2.40;;;16.60;83.40;;;;;;5117688;28;20027;-82
2021/08/08 05:49:16;;;;;;;11.90;1.90;;;16.60;83.00;;;;;;5117413;28;20028;-80
2021/08/08 05:51:41;;;;;;;12.90;1.88;;;16.80;82.80;;;;;;5099828;28;20027;-82
2021/08/08 05:54:08;;;;;;;14.48;1.95;;;16.80;82.50;;;;;;5082084;28;20069;-81
2021/08/08 05:56:33;;;;;;;12.40;1.83;;;16.90;82.20;;;;;;5125029;28;20050;-79
2021/08/08 05:58:59;;;;;;;11.13;1.90;;;16.90;82.10;;;;;;5126543;28;20020;-81
2021/08/08 06:01:25;;;;;;;16.80;2.10;;;17.00;82.10;;;;;;5110017;28;20028;-81
2021/08/08 06:03:51;;;;;;;13.48;2.00;;;17.00;81.80;;;;;;5081837;28;20491;-80
2021/08/08 06:06:16;;;;;;;11.40;2.33;;;17.00;81.70;;;;;;5101457;28;20019;-82
2021/08/08 06:08:42;;;;;;;8.65;1.90;;;17.00;81.70;;;;;;5105592;28;20016;-83
2021/08/08 06:11:08;;;;;;;14.73;2.40;;;17.00;81.70;;;;;;5103891;28;20119;-81
2021/08/08 06:13:34;;;;;;;11.65;2.15;;;17.00;81.60;;;;;;5100159;28;20084;-83
2021/08/08 06:16:00;;;;;;;11.95;1.73;;;17.00;81.40;;;;;;5115870;28;20490;-84
2021/08/08 06:18:25;;;;;;;15.00;2.20;;;17.00;81.30;;;;;;5116831;28;20063;-82
2021/08/08 06:20:51;;;;;;;11.57;1.48;;;17.10;81.20;;;;;;5100591;28;20058;-81
2021/08/08 06:23:17;;;;;;;14.45;2.00;;;17.10;81.00;;;;;;5105299;28;20032;-85
2021/08/08 06:25:43;;;;;;;11.57;1.70;;;17.10;80.80;;;;;;5123073;28;20027;-84
2021/08/08 06:28:08;;;;;;;10.77;2.10;;;17.10;80.80;;;;;;5118799;28;20076;-82
2021/08/08 06:30:34;;;;;;;10.95;2.03;;;17.10;80.90;;;;;;5085186;28;20416;-84
2021/08/08 06:33:00;;;;;;;14.05;2.50;;;17.10;80.70;;;;;;5118248;28;20023;-84
2021/08/08 06:35:25;;;;;;;12.82;1.83;;;17.10;80.50;;;;;;5118592;28;20085;-84
2021/08/08 06:37:51;;;;;;;10.50;2.05;;;17.00;80.50;;;;;;5115902;28;20112;-80
2021/08/08 06:40:17;;;;;;;14.85;1.92;;;17.10;80.50;;;;;;5098538;28;20051;-82
2021/08/08 06:42:43;;;;;;;7.43;1.52;;;17.10;80.20;;;;;;5115292;28;20198;-79
2021/08/08 06:45:09;;;;;;;12.52;2.15;;;17.10;80.70;;;;;;5098281;28;20023;-82
2021/08/08 06:47:35;;;;;;;18.23;2.10;;;17.30;80.10;;;;;;5097963;28;20127;-80
2021/08/08 06:50:01;;;;;;;9.27;1.58;;;17.40;79.60;;;;;;5095622;28;20115;-82
2021/08/08 06:52:27;;;;;;;11.45;1.73;;;17.80;78.90;;;;;;5063187;28;20035;-81
2021/08/08 06:54:52;;;;;;;12.70;1.85;;;18.30;77.70;;;;;;5077447;28;20024;-82
2021/08/08 06:57:25;;;;;;;11.20;2.10;;;19.10;74.40;;;;;;5089549;28;20051;-81
2021/08/08 06:59:51;;;;;;;10.35;2.20;;;19.20;73.40;;;;;;5082822;28;20107;-82
2021/08/08 07:02:17;;;;;;;10.98;1.70;;;19.60;73.10;;;;;;5118738;28;20081;-81
2021/08/08 07:04:43;;;;;;;9.80;2.10;;;20.50;71.70;;;;;;5083668;28;20028;-81
2021/08/08 07:07:08;;;;;;;11.48;2.22;;;21.00;69.70;;;;;;5114609;28;20030;-81
2021/08/08 07:09:34;;;;;;;9.30;2.15;;;21.70;67.60;;;;;;5114675;28;20505;-80
2021/08/08 07:12:00;;;;;;;12.00;2.30;;;21.80;66.60;;;;;;5115337;27;20031;-82
2021/08/08 07:14:26;;;;;;;11.15;2.08;;;21.60;66.30;;;;;;5077740;28;20024;-80
2021/08/08 07:16:52;;;;;;;9.85;2.15;;;21.50;66.80;;;;;;5089764;28;20040;-80
2021/08/08 07:19:18;;;;;;;11.93;2.22;;;21.50;66.30;;;;;;5114947;28;20116;-80
2021/08/08 07:21:43;;;;;;;7.18;2.05;;;21.60;65.80;;;;;;5110862;27;20031;-81
2021/08/08 07:24:09;;;;;;;12.85;2.45;;;21.40;65.70;;;;;;5116187;28;20047;-82
2021/08/08 07:26:35;;;;;;;9.20;1.83;;;21.60;66.40;;;;;;5097481;28;20479;-82
2021/08/08 07:29:00;;;;;;;10.70;2.00;;;21.90;65.80;;;;;;5118356;28;20028;-84
2021/08/08 07:31:26;;;;;;;15.27;2.90;;;22.10;64.90;;;;;;5114665;28;20486;-82
2021/08/08 07:33:53;;;;;;;9.85;2.10;;;21.90;64.80;;;;;;5115239;28;20473;-82
2021/08/08 07:36:19;;;;;;;8.38;1.63;;;21.90;64.40;;;;;;5113662;28;20567;-82
2021/08/08 07:38:45;;;;;;;11.32;2.42;;;22.30;63.50;;;;;;5115439;28;20048;-82
2021/08/08 07:41:11;;;;;;;9.68;2.47;;;22.50;63.20;;;;;;5095766;28;20058;-82
2021/08/08 07:43:38;;;;;;;11.05;2.38;;;22.50;63.30;;;;;;5093274;28;20032;-82
2021/08/08 07:46:04;;;;;;;9.23;2.47;;;22.30;63.20;;;;;;5095253;28;20032;-85
2021/08/08 07:48:29;;;;;;;10.88;2.17;;;22.10;63.50;;;;;;5097169;28;20419;-82
2021/08/08 07:50:55;;;;;;;14.65;3.50;;;21.80;63.40;;;;;;5097286;28;20020;-81
2021/08/08 07:53:22;;;;;;;9.57;3.00;;;21.70;64.10;;;;;;5080534;28;20047;-82
2021/08/08 07:55:49;;;;;;;10.95;2.80;;;21.50;64.20;;;;;;5112817;28;20085;-81
2021/08/08 07:58:17;;;;;;;11.77;2.83;;;21.40;64.70;;;;;;5113705;28;20040;-82
2021/08/08 08:00:43;;;;;;;9.05;2.47;;;21.30;65.00;;;;;;5097191;28;20027;-82
2021/08/08 08:03:08;;;;;;;11.60;2.10;;;21.70;65.10;;;;;;5113035;28;20028;-83
2021/08/08 08:05:35;;;;;;;8.05;2.05;;;22.60;63.30;;;;;;5102826;28;20521;-84
2021/08/08 08:08:00;;;;;;;9.38;1.83;;;23.30;61.70;;;;;;5081833;28;20028;-84
2021/08/08 08:10:26;;;;;;;9.88;2.17;;;23.90;59.90;;;;;;5119432;28;20080;-84
2021/08/08 08:12:53;;;;;;;8.02;1.98;;;24.20;59.00;;;;;;5104098;28;20083;-84
2021/08/08 08:15:19;;;;;;;10.00;2.13;;;24.70;57.40;;;;;;5100271;28;20044;-82
2021/08/08 08:17:45;;;;;;;7.97;2.22;;;24.80;56.60;;;;;;5115834;28;20037;-83
2021/08/08 08:20:11;;;;;;;7.88;2.03;;;24.50;56.80;;;;;;5113428;28;20528;-84
2021/08/08 08:22:37;;;;;;;9.05;2.10;;;24.30;56.70;;;;;;5096621;28;20028;-82
2021/08/08 08:25:03;;;;;;;10.05;2.03;;;23.80;57.00;;;;;;5079718;28;20053;-82
2021/08/08 08:27:28;;;;;;;7.65;1.80;;;23.40;57.90;;;;;;5096036;28;20034;-82
2021/08/08 08:29:56;;;;;;;8.88;2.33;;;23.20;59.70;;;;;;5096128;28;20027;-82
2021/08/08 08:32:22;;;;;;;8.52;1.63;;;23.20;59.70;;;;;;5112458;28;20024;-82
2021/08/08 08:34:48;;;;;;;9.52;2.15;;;23.10;59.90;;;;;;5112967;28;20106;-82
2021/08/08 08:37:13;;;;;;;10.80;1.42;;;22.90;60.00;;;;;;5095794;28;20036;-83
2021/08/08 08:39:39;;;;;;;6.70;1.40;;;22.70;60.20;;;;;;5112943;28;20085;-83
2021/08/08 08:42:07;;;;;;;7.10;1.23;;;22.50;60.70;;;;;;5096241;28;20371;-83
2021/08/08 08:44:34;;;;;;;9.48;1.40;;;22.30;60.80;;;;;;5112049;28;20384;-80
2021/08/08 08:47:02;;;;;;;8.35;1.33;;;22.10;61.50;;;;;;5095009;28;20112;-81
2021/08/08 08:49:29;;;;;;;10.27;1.17;;;21.90;61.80;;;;;;5113660;28;20042;-82
2021/08/08 08:52:05;;;;;;;8.43;1.17;;;22.00;61.60;;;;;;5112592;28;20023;-80
2021/08/08 08:54:32;;;;;;;9.32;1.55;;;22.20;60.40;;;;;;5113399;28;20028;-81
2021/08/08 08:57:01;;;;;;;5.40;1.20;;;22.30;60.20;;;;;;5095075;28;20158;-82
2021/08/08 08:59:28;;;;;;;7.95;1.13;;;22.30;61.00;;;;;;5129593;28;20412;-81
2021/08/08 09:01:54;;;;;;;8.07;1.20;;;22.10;61.00;;;;;;5102361;28;20051;-81
2021/08/08 09:04:19;;;;;;;7.20;1.15;;;22.00;61.20;;;;;;5109827;28;20463;-78
2021/08/08 09:06:46;;;;;;;6.13;1.23;;;21.90;61.60;;;;;;5082705;28;20042;-80
2021/08/08 09:09:12;;;;;;;6.47;1.00;;;22.10;62.00;;;;;;5118360;28;20459;-79
2021/08/08 09:11:43;;;;;;;10.00;1.27;;;22.20;61.60;;;;;;5117933;28;20019;-79
2021/08/08 09:14:10;;;;;;;7.10;1.30;;;22.40;61.50;;;;;;5111896;28;20024;-79
2021/08/08 09:16:42;;;;;;;13.05;1.48;;;22.30;60.90;;;;;;5106327;28;20084;-78
2021/08/08 09:19:17;;;;;;;9.03;1.40;;;22.10;61.70;;;;;;5118063;28;20068;-80
2021/08/08 09:21:44;;;;;;;7.40;1.73;;;22.10;62.10;;;;;;5116475;28;20024;-81
2021/08/08 09:24:20;;;;;;;9.48;1.15;;;22.30;62.10;;;;;;5116591;28;20032;-80
2021/08/08 09:26:46;;;;;;;11.05;1.50;;;22.70;61.20;;;;;;5100764;28;20517;-79
2021/08/08 09:29:14;;;;;;;7.57;1.08;;;23.50;57.90;;;;;;5095720;28;20023;-79
2021/08/08 09:31:46;;;;;;;6.18;1.10;;;24.00;58.10;;;;;;5097132;28;20039;-81
2021/08/08 09:34:24;;;;;;;7.43;1.27;;;24.00;57.50;;;;;;5100647;28;20068;-79
2021/08/08 09:36:51;;;;;;;8.15;1.60;;;23.90;57.20;;;;;;5099990;28;20031;-81
2021/08/08 09:39:38;;;;;;;9.10;1.55;;;23.50;57.60;;;;;;5115839;28;20455;-84
2021/08/08 09:42:08;;;;;;;9.02;1.85;;;23.40;58.30;;;;;;5117327;28;20046;-79
2021/08/08 09:44:35;;;;;;;10.02;1.70;;;23.20;58.50;;;;;;5116824;28;20081;-80
2021/08/08 09:47:01;;;;;;;8.32;1.70;;;23.00;59.40;;;;;;5115997;28;20039;-80
2021/08/08 09:49:27;;;;;;;6.63;1.80;;;22.80;59.80;;;;;;5116650;28;20020;-79
2021/08/08 09:51:53;;;;;;;11.55;1.90;;;22.80;60.30;;;;;;5116041;28;20482;-79
2021/08/08 09:54:19;;;;;;;8.02;1.70;;;22.90;59.90;;;;;;5132488;27;20141;-79
2021/08/08 09:56:56;;;;;;;7.53;1.50;;;23.10;59.40;;;;;;5132088;27;20100;-79
2021/08/08 09:59:22;;;;;;;9.05;1.40;;;23.00;59.20;;;;;;5115661;28;20140;-80
2021/08/08 10:01:47;;;;;;;6.78;1.35;;;22.70;60.00;;;;;;5115821;28;20518;-79
2021/08/08 10:04:13;;;;;;;9.48;1.20;;;22.40;60.90;;;;;;5098352;28;20100;-79
2021/08/08 10:06:40;;;;;;;6.65;1.13;;;22.10;61.30;;;;;;5067899;28;20032;-79
2021/08/08 10:09:06;;;;;;;5.65;1.08;;;22.00;61.80;;;;;;5098167;28;20485;-79
2021/08/08 10:11:33;;;;;;;7.35;1.40;;;22.10;61.90;;;;;;5114887;28;20126;-81
2021/08/08 10:14:02;;;;;;;7.30;2.38;;;22.20;61.70;;;;;;5115691;28;20016;-79
2021/08/08 10:16:35;;;;;;;5.53;1.20;;;22.40;61.20;;;;;;5114067;28;20030;-81
2021/08/08 10:19:03;;;;;;;6.68;1.02;;;22.60;60.60;;;;;;5098403;28;20463;-80
2021/08/08 10:21:38;;;;;;;4.38;1.05;;;22.80;60.00;;;;;;5114986;28;20043;-80
2021/08/08 10:24:08;;;;;;;5.40;1.10;;;23.20;59.00;;;;;;5114923;28;20036;-80
2021/08/08 10:26:34;;;;;;;8.43;1.10;;;23.50;58.40;;;;;;5115951;27;20027;-80
2021/08/08 10:29:04;;;;;;;5.93;1.00;;;23.80;56.70;;;;;;5107882;28;20031;-80
2021/08/08 10:31:31;;;;;;;5.95;1.00;;;23.90;57.10;;;;;;5108659;28;20053;-82
2021/08/08 10:33:59;;;;;;;5.47;1.05;;;23.80;57.40;;;;;;5124341;28;20095;-79
2021/08/08 10:36:26;;;;;;;7.43;0.90;;;23.60;58.00;;;;;;5126494;28;20020;-85
2021/08/08 10:39:25;;;;;;;10.30;1.00;;;23.50;57.80;;;;;;5115933;28;20015;-79
2021/08/08 10:41:56;;;;;;;5.00;0.98;;;23.20;58.00;;;;;;5081052;28;20092;-80
2021/08/08 10:44:23;;;;;;;8.18;1.45;;;23.00;59.30;;;;;;5115104;28;20027;-81
2021/08/08 10:46:51;;;;;;;8.00;2.33;;;22.80;59.50;;;;;;5114455;28;20023;-80
2021/08/08 10:49:28;;;;;;;6.38;0.93;;;22.80;59.20;;;;;;5116330;28;20101;-82
2021/08/08 10:51:58;;;;;;;4.75;0.82;;;22.60;58.30;;;;;;5114634;28;20073;-80
2021/08/08 10:54:24;;;;;;;3.50;0.70;;;22.50;59.30;;;;;;5114557;28;20532;-79
2021/08/08 10:56:49;;;;;;;4.03;0.70;;;22.70;59.00;;;;;;5113892;28;20039;-81
2021/08/08 10:59:21;;;;;;;3.58;0.60;;;23.00;58.40;;;;;;5131915;27;20443;-80
2021/08/08 11:02:07;;;;;;;3.53;0.60;;;23.20;57.20;;;;;;5114335;28;20066;-80
2021/08/08 11:04:33;;;;;;;4.03;0.80;;;23.60;56.70;;;;;;5097594;28;20363;-84
2021/08/08 11:07:02;;;;;;;2.50;0.50;;;24.20;56.00;;;;;;5114363;28;20034;-79
2021/08/08 11:09:28;;;;;;;3.28;0.60;;;24.60;54.40;;;;;;5113658;28;20028;-79
2021/08/08 11:11:56;;;;;;;4.15;0.75;;;24.90;52.70;;;;;;5113199;28;20024;-80
2021/08/08 11:14:22;;;;;;;4.15;0.60;;;25.00;53.10;;;;;;5088484;28;20478;-79
2021/08/08 11:17:01;;;;;;;5.03;0.70;;;25.30;52.40;;;;;;5113490;28;20097;-79
2021/08/08 11:19:31;;;;;;;3.20;0.50;;;25.50;51.60;;;;;;5105716;28;20023;-80
2021/08/08 11:22:14;;;;;;;2.05;0.40;;;25.90;51.40;;;;;;5114102;28;20023;-79
2021/08/08 11:24:43;;;;;;;3.40;0.50;;;26.00;50.20;;;;;;5106818;28;20020;-79
2021/08/08 11:27:10;;;;;;;2.67;0.60;;;25.90;49.90;;;;;;5110458;28;20073;-80
2021/08/08 11:29:37;;;;;;;5.20;0.70;;;26.00;49.80;;;;;;5081641;28;20039;-83
2021/08/08 11:32:05;;;;;;;3.33;0.52;;;26.10;49.80;;;;;;5101346;28;20032;-79
2021/08/08 11:34:31;;;;;;;3.67;0.55;;;26.00;49.70;;;;;;5093317;28;20051;-78
2021/08/08 11:36:58;;;;;;;5.70;0.70;;;26.10;48.20;;;;;;5092655;28;20463;-78
2021/08/08 11:39:35;;;;;;;4.22;0.73;;;26.10;49.10;;;;;;5113266;28;20059;-79
2021/08/08 11:42:03;;;;;;;5.82;1.20;;;26.00;49.50;;;;;;5100121;28;20069;-79
2021/08/08 11:44:39;;;;;;;4.25;1.98;;;25.90;48.60;;;;;;5093638;28;20028;-79
2021/08/08 11:47:05;;;;;;;4.03;1.13;;;25.70;49.00;;;;;;5094786;28;20028;-79
2021/08/08 11:49:42;;;;;;;3.92;0.70;;;25.40;49.50;;;;;;5076108;28;20032;-79
2021/08/08 11:52:07;;;;;;;4.05;0.77;;;25.70;49.30;;;;;;5093307;28;20020;-79
2021/08/08 11:54:33;;;;;;;6.03;1.20;;;25.80;49.20;;;;;;5075998;28;20147;-79
2021/08/08 11:57:00;;;;;;;4.72;0.93;;;25.80;49.20;;;;;;5075063;28;20665;-79
2021/08/08 11:59:32;;;;;;;4.45;1.13;;;25.90;49.10;;;;;;5094132;28;20099;-79
2021/08/08 12:01:59;;;;;;;4.97;0.90;;;26.20;48.60;;;;;;5107900;28;20024;-80
2021/08/08 12:04:25;;;;;;;3.40;0.98;;;26.10;48.80;;;;;;5113035;28;20028;-78
2021/08/08 12:06:53;;;;;;;3.20;0.60;;;26.00;48.30;;;;;;5112561;28;20059;-78
2021/08/08 12:09:23;;;;;;;2.78;0.60;;;25.90;48.60;;;;;;5112788;28;20363;-79
2021/08/08 12:11:56;;;;;;;4.72;0.60;;;25.80;49.10;;;;;;5100570;28;20059;-78
2021/08/08 12:14:34;;;;;;;3.30;0.75;;;26.10;47.80;;;;;;5092557;28;20024;-79
2021/08/08 12:17:06;;;;;;;2.25;0.50;;;26.00;48.80;;;;;;5108388;28;20142;-79
2021/08/08 12:19:33;;;;;;;3.08;0.57;;;26.10;49.00;;;;;;5114456;28;20024;-79
2021/08/08 12:22:02;;;;;;;3.28;0.80;;;26.10;48.00;;;;;;5112526;28;20537;-79
2021/08/08 12:25:00;;;;;;;2.75;0.60;;;26.00;47.50;;;;;;5112759;28;20023;-79
2021/08/08 12:27:37;;;;;;;3.42;0.63;;;25.80;47.80;;;;;;5084351;28;20127;-79
2021/08/08 12:30:09;;;;;;;2.40;0.40;;;25.70;47.60;;;;;;5112145;28;20024;-79
2021/08/08 12:32:36;;;;;;;3.90;0.90;;;25.70;47.40;;;;;;5114049;28;20083;-80
2021/08/08 12:35:10;;;;;;;3.47;0.50;;;25.80;47.90;;;;;;5112837;28;20028;-79
2021/08/08 12:37:37;;;;;;;2.45;0.50;;;25.60;47.60;;;;;;5112217;28;20487;-79
2021/08/08 12:40:09;;;;;;;2.33;0.40;;;25.40;47.80;;;;;;5111415;28;20035;-79
2021/08/08 12:42:35;;;;;;;3.50;0.60;;;25.10;48.00;;;;;;5112886;28;20027;-79